sensor_id;sensor_type;location;lat;lon;timestamp;pressure;altitude;pressure_sealevel;temperature;humidity
62055;BME280;48653;51.742;-1.256;2024-01-25T00:03:47;102298.23;;;7.71;50.84
62055;BME280;48653;51.742;-1.256;2024-01-25T00:06:12;102299.55;;;7.11;53.08
62055;BME280;48653;51.742;-1.256;2024-01-25T00:08:37;102288.18;;;7.45;52.51
62055;BME280;48653;51.742;-1.256;2024-01-25T00:11:04;102277.53;;;7.65;52.10
62055;BME280;48653;51.742;-1.256;2024-01-25T00:13:29;102279.35;;;7.09;53.70
62055;BME280;48653;51.742;-1.256;2024-01-25T00:15:55;102271.80;;;7.51;52.68
62055;BME280;48653;51.742;-1.256;2024-01-25T00:18:19;102284.56;;;7.20;52.72
62055;BME280;48653;51.742;-1.256;2024-01-25T00:20:44;102290.93;;;7.35;52.53
62055;BME280;48653;51.742;-1.256;2024-01-25T00:23:09;102286.23;;;7.38;51.94
62055;BME280;48653;51.742;-1.256;2024-01-25T00:25:35;102296.23;;;7.24;53.33
62055;BME280;48653;51.742;-1.256;2024-01-25T00:28:00;102300.84;;;7.21;53.10
62055;BME280;48653;51.742;-1.256;2024-01-25T00:30:26;102299.07;;;7.34;52.85
62055;BME280;48653;51.742;-1.256;2024-01-25T00:32:51;102297.60;;;7.17;53.17
62055;BME280;48653;51.742;-1.256;2024-01-25T00:35:17;102294.02;;;7.05;53.11
62055;BME280;48653;51.742;-1.256;2024-01-25T00:37:43;102288.92;;;6.64;52.83
62055;BME280;48653;51.742;-1.256;2024-01-25T00:40:09;102284.19;;;7.18;51.60
62055;BME280;48653;51.742;-1.256;2024-01-25T00:42:37;102277.82;;;7.49;51.29
62055;BME280;48653;51.742;-1.256;2024-01-25T00:45:00;102275.88;;;7.56;50.56
62055;BME280;48653;51.742;-1.256;2024-01-25T00:47:24;102270.37;;;7.52;50.81
62055;BME280;48653;51.742;-1.256;2024-01-25T00:49:50;102269.15;;;7.29;50.58
62055;BME280;48653;51.742;-1.256;2024-01-25T00:52:16;102266.17;;;7.23;50.93
62055;BME280;48653;51.742;-1.256;2024-01-25T00:54:41;102266.72;;;7.26;52.04
62055;BME280;48653;51.742;-1.256;2024-01-25T00:57:07;102265.59;;;7.16;51.46
62055;BME280;48653;51.742;-1.256;2024-01-25T00:59:32;102261.65;;;7.13;51.41
62055;BME280;48653;51.742;-1.256;2024-01-25T01:01:58;102259.63;;;7.43;50.72
62055;BME280;48653;51.742;-1.256;2024-01-25T01:04:24;102257.52;;;7.14;50.69
62055;BME280;48653;51.742;-1.256;2024-01-25T01:06:48;102255.34;;;7.09;51.06
62055;BME280;48653;51.742;-1.256;2024-01-25T01:09:14;102254.27;;;7.13;50.48
62055;BME280;48653;51.742;-1.256;2024-01-25T01:11:38;102251.17;;;6.91;50.94
62055;BME280;48653;51.742;-1.256;2024-01-25T01:14:04;102249.18;;;7.34;50.16
62055;BME280;48653;51.742;-1.256;2024-01-25T01:16:30;102241.66;;;7.12;49.99
62055;BME280;48653;51.742;-1.256;2024-01-25T01:18:55;102239.33;;;7.32;50.02
62055;BME280;48653;51.742;-1.256;2024-01-25T01:21:20;102231.64;;;7.42;50.03
62055;BME280;48653;51.742;-1.256;2024-01-25T01:23:45;102229.91;;;7.22;50.84
62055;BME280;48653;51.742;-1.256;2024-01-25T01:26:11;102225.65;;;7.29;51.59
62055;BME280;48653;51.742;-1.256;2024-01-25T01:28:36;102223.21;;;7.00;52.07
62055;BME280;48653;51.742;-1.256;2024-01-25T01:31:02;102220.39;;;7.47;52.03
62055;BME280;48653;51.742;-1.256;2024-01-25T01:33:27;102214.67;;;6.87;51.93
62055;BME280;48653;51.742;-1.256;2024-01-25T01:35:52;102210.28;;;6.95;51.89
62055;BME280;48653;51.742;-1.256;2024-01-25T01:38:19;102200.94;;;6.98;51.56
62055;BME280;48653;51.742;-1.256;2024-01-25T01:40:45;102199.61;;;7.04;51.19
62055;BME280;48653;51.742;-1.256;2024-01-25T01:43:17;102193.64;;;7.04;51.40
62055;BME280;48653;51.742;-1.256;2024-01-25T01:45:35;102192.97;;;7.27;51.21
62055;BME280;48653;51.742;-1.256;2024-01-25T01:48:01;102189.89;;;7.23;51.31
62055;BME280;48653;51.742;-1.256;2024-01-25T01:50:27;102190.23;;;6.61;51.34
62055;BME280;48653;51.742;-1.256;2024-01-25T01:52:53;102193.94;;;6.57;51.03
62055;BME280;48653;51.742;-1.256;2024-01-25T01:55:18;102199.14;;;6.82;51.34
62055;BME280;48653;51.742;-1.256;2024-01-25T01:57:44;102194.43;;;6.48;51.82
62055;BME280;48653;51.742;-1.256;2024-01-25T02:00:10;102182.32;;;7.02;51.35
62055;BME280;48653;51.742;-1.256;2024-01-25T02:02:35;102170.43;;;6.66;51.42
62055;BME280;48653;51.742;-1.256;2024-01-25T02:05:00;102170.98;;;6.73;51.64
62055;BME280;48653;51.742;-1.256;2024-01-25T02:07:25;102166.46;;;6.57;51.97
62055;BME280;48653;51.742;-1.256;2024-01-25T02:09:51;102166.96;;;6.13;53.24
62055;BME280;48653;51.742;-1.256;2024-01-25T02:12:16;102164.47;;;6.45;52.85
62055;BME280;48653;51.742;-1.256;2024-01-25T02:14:42;102159.74;;;6.57;52.61
62055;BME280;48653;51.742;-1.256;2024-01-25T02:17:07;102155.86;;;7.24;52.20
62055;BME280;48653;51.742;-1.256;2024-01-25T02:19:32;102156.49;;;7.03;52.40
62055;BME280;48653;51.742;-1.256;2024-01-25T02:22:04;102149.59;;;7.19;52.56
62055;BME280;48653;51.742;-1.256;2024-01-25T02:24:23;102139.97;;;7.01;52.58
62055;BME280;48653;51.742;-1.256;2024-01-25T02:26:48;102140.73;;;7.09;52.39
62055;BME280;48653;51.742;-1.256;2024-01-25T02:29:14;102141.80;;;6.95;52.16
62055;BME280;48653;51.742;-1.256;2024-01-25T02:31:39;102140.45;;;6.99;52.15
62055;BME280;48653;51.742;-1.256;2024-01-25T02:34:05;102141.37;;;7.33;52.29
62055;BME280;48653;51.742;-1.256;2024-01-25T02:36:30;102135.69;;;7.22;52.39
62055;BME280;48653;51.742;-1.256;2024-01-25T02:41:22;102138.15;;;7.38;52.51
62055;BME280;48653;51.742;-1.256;2024-01-25T02:43:46;102137.49;;;7.55;51.56
62055;BME280;48653;51.742;-1.256;2024-01-25T02:46:12;102137.65;;;7.80;50.87
62055;BME280;48653;51.742;-1.256;2024-01-25T02:48:38;102132.86;;;7.57;51.25
62055;BME280;48653;51.742;-1.256;2024-01-25T02:51:04;102130.28;;;7.47;51.40
62055;BME280;48653;51.742;-1.256;2024-01-25T02:53:29;102123.19;;;7.43;51.14
62055;BME280;48653;51.742;-1.256;2024-01-25T02:55:54;102116.09;;;7.60;51.36
62055;BME280;48653;51.742;-1.256;2024-01-25T02:58:19;102103.01;;;7.64;51.64
62055;BME280;48653;51.742;-1.256;2024-01-25T03:00:45;102094.41;;;7.73;51.52
62055;BME280;48653;51.742;-1.256;2024-01-25T03:03:10;102095.39;;;7.49;52.10
62055;BME280;48653;51.742;-1.256;2024-01-25T03:05:35;102092.97;;;7.97;50.95
62055;BME280;48653;51.742;-1.256;2024-01-25T03:08:01;102092.67;;;7.58;52.43
62055;BME280;48653;51.742;-1.256;2024-01-25T03:10:26;102082.32;;;7.52;52.95
62055;BME280;48653;51.742;-1.256;2024-01-25T03:12:52;102080.46;;;7.49;52.85
62055;BME280;48653;51.742;-1.256;2024-01-25T03:15:17;102081.16;;;7.74;52.41
62055;BME280;48653;51.742;-1.256;2024-01-25T03:17:42;102081.85;;;8.40;51.01
62055;BME280;48653;51.742;-1.256;2024-01-25T03:20:09;102078.18;;;7.32;52.47
62055;BME280;48653;51.742;-1.256;2024-01-25T03:22:34;102073.89;;;7.83;52.14
62055;BME280;48653;51.742;-1.256;2024-01-25T03:24:58;102072.46;;;8.08;52.38
62055;BME280;48653;51.742;-1.256;2024-01-25T03:27:24;102068.48;;;7.77;53.00
62055;BME280;48653;51.742;-1.256;2024-01-25T03:29:49;102069.30;;;7.74;52.56
62055;BME280;48653;51.742;-1.256;2024-01-25T03:32:14;102063.87;;;7.69;53.16
62055;BME280;48653;51.742;-1.256;2024-01-25T03:34:40;102056.38;;;8.06;52.37
62055;BME280;48653;51.742;-1.256;2024-01-25T03:37:06;102052.30;;;8.10;52.39
62055;BME280;48653;51.742;-1.256;2024-01-25T03:39:31;102049.57;;;7.65;53.14
62055;BME280;48653;51.742;-1.256;2024-01-25T03:41:57;102046.58;;;7.44;52.48
62055;BME280;48653;51.742;-1.256;2024-01-25T03:44:22;102044.22;;;7.78;52.00
62055;BME280;48653;51.742;-1.256;2024-01-25T03:46:48;102037.02;;;7.70;51.49
62055;BME280;48653;51.742;-1.256;2024-01-25T03:49:14;102035.30;;;7.62;51.57
62055;BME280;48653;51.742;-1.256;2024-01-25T03:51:38;102034.06;;;7.68;51.92
62055;BME280;48653;51.742;-1.256;2024-01-25T03:54:05;102033.14;;;7.72;52.31
62055;BME280;48653;51.742;-1.256;2024-01-25T03:56:30;102031.61;;;8.36;50.72
62055;BME280;48653;51.742;-1.256;2024-01-25T03:58:55;102030.95;;;7.96;51.03
62055;BME280;48653;51.742;-1.256;2024-01-25T04:01:20;102026.09;;;8.23;50.78
62055;BME280;48653;51.742;-1.256;2024-01-25T04:03:45;102028.15;;;7.80;51.26
62055;BME280;48653;51.742;-1.256;2024-01-25T04:06:11;102030.82;;;8.42;50.55
62055;BME280;48653;51.742;-1.256;2024-01-25T04:08:36;102028.79;;;8.10;51.01
62055;BME280;48653;51.742;-1.256;2024-01-25T04:11:01;102026.93;;;7.92;51.38
62055;BME280;48653;51.742;-1.256;2024-01-25T04:13:28;102023.76;;;8.04;51.12
62055;BME280;48653;51.742;-1.256;2024-01-25T04:15:53;102017.40;;;8.33;50.67
62055;BME280;48653;51.742;-1.256;2024-01-25T04:18:18;102020.36;;;7.80;51.57
62055;BME280;48653;51.742;-1.256;2024-01-25T04:20:44;102017.37;;;8.08;51.61
62055;BME280;48653;51.742;-1.256;2024-01-25T04:23:09;102009.57;;;8.81;51.06
62055;BME280;48653;51.742;-1.256;2024-01-25T04:25:34;102005.64;;;8.06;52.46
62055;BME280;48653;51.742;-1.256;2024-01-25T04:28:00;102007.49;;;8.11;52.61
62055;BME280;48653;51.742;-1.256;2024-01-25T04:30:25;102003.17;;;8.06;53.07
62055;BME280;48653;51.742;-1.256;2024-01-25T04:32:50;102002.06;;;8.11;53.36
62055;BME280;48653;51.742;-1.256;2024-01-25T04:35:15;102004.47;;;7.80;53.04
62055;BME280;48653;51.742;-1.256;2024-01-25T04:37:40;101998.73;;;7.62;53.81
62055;BME280;48653;51.742;-1.256;2024-01-25T04:40:07;101997.58;;;7.62;54.24
62055;BME280;48653;51.742;-1.256;2024-01-25T04:42:32;101994.39;;;7.71;54.19
62055;BME280;48653;51.742;-1.256;2024-01-25T04:44:57;101994.15;;;7.52;55.05
62055;BME280;48653;51.742;-1.256;2024-01-25T04:47:23;101994.08;;;8.43;53.52
62055;BME280;48653;51.742;-1.256;2024-01-25T04:49:48;101991.67;;;8.13;54.00
62055;BME280;48653;51.742;-1.256;2024-01-25T04:52:13;101987.60;;;8.41;53.49
62055;BME280;48653;51.742;-1.256;2024-01-25T04:54:39;101984.50;;;8.57;53.52
62055;BME280;48653;51.742;-1.256;2024-01-25T04:57:04;101984.83;;;8.42;53.24
62055;BME280;48653;51.742;-1.256;2024-01-25T04:59:29;101982.17;;;8.33;53.70
62055;BME280;48653;51.742;-1.256;2024-01-25T05:01:55;101979.10;;;8.25;53.61
62055;BME280;48653;51.742;-1.256;2024-01-25T05:04:20;101975.43;;;8.41;53.86
62055;BME280;48653;51.742;-1.256;2024-01-25T05:06:46;101971.57;;;9.21;53.25
62055;BME280;48653;51.742;-1.256;2024-01-25T05:09:12;101975.18;;;8.51;54.04
62055;BME280;48653;51.742;-1.256;2024-01-25T05:11:38;101974.03;;;8.51;54.64
62055;BME280;48653;51.742;-1.256;2024-01-25T05:14:03;101970.26;;;8.58;54.61
62055;BME280;48653;51.742;-1.256;2024-01-25T05:16:29;101966.55;;;8.42;55.03
62055;BME280;48653;51.742;-1.256;2024-01-25T05:18:54;101964.78;;;8.08;56.91
62055;BME280;48653;51.742;-1.256;2024-01-25T05:21:19;101959.20;;;8.09;57.17
62055;BME280;48653;51.742;-1.256;2024-01-25T05:23:44;101955.45;;;8.00;57.55
62055;BME280;48653;51.742;-1.256;2024-01-25T05:26:11;101953.59;;;8.45;56.90
62055;BME280;48653;51.742;-1.256;2024-01-25T05:28:36;101950.77;;;7.43;60.78
62055;BME280;48653;51.742;-1.256;2024-01-25T05:31:01;101947.62;;;7.68;58.42
62055;BME280;48653;51.742;-1.256;2024-01-25T05:33:27;101943.93;;;7.99;58.44
62055;BME280;48653;51.742;-1.256;2024-01-25T05:35:52;101941.96;;;7.66;59.86
62055;BME280;48653;51.742;-1.256;2024-01-25T05:38:17;101935.23;;;7.09;61.42
62055;BME280;48653;51.742;-1.256;2024-01-25T05:40:42;101934.18;;;6.77;62.80
62055;BME280;48653;51.742;-1.256;2024-01-25T05:43:08;101932.88;;;7.35;61.15
62055;BME280;48653;51.742;-1.256;2024-01-25T05:45:33;101927.05;;;7.77;59.95
62055;BME280;48653;51.742;-1.256;2024-01-25T05:47:59;101924.74;;;8.05;59.56
62055;BME280;48653;51.742;-1.256;2024-01-25T05:50:25;101925.65;;;7.67;60.61
62055;BME280;48653;51.742;-1.256;2024-01-25T05:52:50;101923.35;;;7.98;60.36
62055;BME280;48653;51.742;-1.256;2024-01-25T05:55:16;101925.94;;;7.34;62.25
62055;BME280;48653;51.742;-1.256;2024-01-25T05:57:43;101927.06;;;7.76;60.57
62055;BME280;48653;51.742;-1.256;2024-01-25T06:00:07;101921.17;;;7.43;61.72
62055;BME280;48653;51.742;-1.256;2024-01-25T06:02:31;101920.89;;;7.56;61.30
62055;BME280;48653;51.742;-1.256;2024-01-25T06:04:57;101919.68;;;7.50;62.20
62055;BME280;48653;51.742;-1.256;2024-01-25T06:07:22;101909.37;;;7.12;63.61
62055;BME280;48653;51.742;-1.256;2024-01-25T06:09:48;101904.57;;;7.78;62.10
62055;BME280;48653;51.742;-1.256;2024-01-25T06:12:13;101907.71;;;7.37;63.18
62055;BME280;48653;51.742;-1.256;2024-01-25T06:17:04;101911.76;;;7.79;60.91
62055;BME280;48653;51.742;-1.256;2024-01-25T06:19:30;101909.60;;;7.63;62.31
62055;BME280;48653;51.742;-1.256;2024-01-25T06:21:54;101911.33;;;7.78;61.61
62055;BME280;48653;51.742;-1.256;2024-01-25T06:24:20;101912.02;;;8.25;60.43
62055;BME280;48653;51.742;-1.256;2024-01-25T06:26:45;101909.28;;;8.40;60.01
62055;BME280;48653;51.742;-1.256;2024-01-25T06:29:10;101906.49;;;8.21;60.06
62055;BME280;48653;51.742;-1.256;2024-01-25T06:31:41;101908.48;;;9.04;59.16
62055;BME280;48653;51.742;-1.256;2024-01-25T06:34:01;101913.24;;;8.42;59.88
62055;BME280;48653;51.742;-1.256;2024-01-25T06:36:26;101908.59;;;8.80;58.41
62055;BME280;48653;51.742;-1.256;2024-01-25T06:38:51;101909.96;;;8.44;59.99
62055;BME280;48653;51.742;-1.256;2024-01-25T06:41:16;101911.03;;;8.52;60.04
62055;BME280;48653;51.742;-1.256;2024-01-25T06:43:42;101910.62;;;9.10;58.81
62055;BME280;48653;51.742;-1.256;2024-01-25T06:46:08;101908.68;;;8.35;60.05
62055;BME280;48653;51.742;-1.256;2024-01-25T06:48:33;101904.12;;;8.97;59.63
62055;BME280;48653;51.742;-1.256;2024-01-25T06:50:59;101902.90;;;7.66;63.36
62055;BME280;48653;51.742;-1.256;2024-01-25T06:53:24;101897.50;;;7.65;64.13
62055;BME280;48653;51.742;-1.256;2024-01-25T06:55:49;101890.65;;;8.06;63.57
62055;BME280;48653;51.742;-1.256;2024-01-25T06:58:15;101899.41;;;8.28;62.02
62055;BME280;48653;51.742;-1.256;2024-01-25T07:00:40;101895.00;;;8.82;60.55
62055;BME280;48653;51.742;-1.256;2024-01-25T07:03:05;101892.52;;;8.60;61.53
62055;BME280;48653;51.742;-1.256;2024-01-25T07:05:31;101892.19;;;8.42;61.85
62055;BME280;48653;51.742;-1.256;2024-01-25T07:07:56;101886.14;;;8.45;62.53
62055;BME280;48653;51.742;-1.256;2024-01-25T07:10:21;101884.36;;;8.80;61.18
62055;BME280;48653;51.742;-1.256;2024-01-25T07:12:47;101879.35;;;8.86;61.03
62055;BME280;48653;51.742;-1.256;2024-01-25T07:15:12;101873.92;;;9.27;59.98
62055;BME280;48653;51.742;-1.256;2024-01-25T07:17:39;101874.13;;;8.79;61.34
62055;BME280;48653;51.742;-1.256;2024-01-25T07:20:05;101873.92;;;7.72;65.79
62055;BME280;48653;51.742;-1.256;2024-01-25T07:22:29;101861.64;;;8.41;64.10
62055;BME280;48653;51.742;-1.256;2024-01-25T07:27:20;101856.11;;;7.37;67.05
62055;BME280;48653;51.742;-1.256;2024-01-25T07:29:45;101855.60;;;7.77;66.24
62055;BME280;48653;51.742;-1.256;2024-01-25T07:32:10;101859.43;;;7.89;65.39
62055;BME280;48653;51.742;-1.256;2024-01-25T07:34:36;101856.63;;;8.44;63.31
62055;BME280;48653;51.742;-1.256;2024-01-25T07:37:03;101864.88;;;8.56;62.83
62055;BME280;48653;51.742;-1.256;2024-01-25T07:39:26;101869.24;;;9.15;61.36
62055;BME280;48653;51.742;-1.256;2024-01-25T07:41:51;101869.34;;;8.68;62.19
62055;BME280;48653;51.742;-1.256;2024-01-25T07:44:18;101856.85;;;9.06;60.55
62055;BME280;48653;51.742;-1.256;2024-01-25T07:46:42;101860.88;;;9.11;61.55
62055;BME280;48653;51.742;-1.256;2024-01-25T07:49:07;101868.87;;;9.02;60.72
62055;BME280;48653;51.742;-1.256;2024-01-25T07:51:32;101869.58;;;9.32;61.14
62055;BME280;48653;51.742;-1.256;2024-01-25T07:53:57;101861.20;;;9.05;62.06
62055;BME280;48653;51.742;-1.256;2024-01-25T07:56:23;101854.45;;;9.21;60.47
62055;BME280;48653;51.742;-1.256;2024-01-25T07:58:48;101846.30;;;9.80;59.19
62055;BME280;48653;51.742;-1.256;2024-01-25T08:01:17;101843.93;;;9.76;59.00
62055;BME280;48653;51.742;-1.256;2024-01-25T08:03:39;101845.65;;;9.51;58.84
62055;BME280;48653;51.742;-1.256;2024-01-25T08:06:04;101844.40;;;9.55;59.42
62055;BME280;48653;51.742;-1.256;2024-01-25T08:08:30;101842.90;;;9.59;59.44
62055;BME280;48653;51.742;-1.256;2024-01-25T08:10:55;101830.63;;;9.44;59.97
62055;BME280;48653;51.742;-1.256;2024-01-25T08:13:20;101821.61;;;9.70;59.20
62055;BME280;48653;51.742;-1.256;2024-01-25T08:18:11;101823.09;;;9.45;60.21
62055;BME280;48653;51.742;-1.256;2024-01-25T08:20:37;101823.90;;;9.86;59.26
62055;BME280;48653;51.742;-1.256;2024-01-25T08:23:01;101827.82;;;10.20;58.05
62055;BME280;48653;51.742;-1.256;2024-01-25T08:25:27;101830.07;;;9.84;58.28
62055;BME280;48653;51.742;-1.256;2024-01-25T08:27:51;101836.49;;;9.72;59.01
62055;BME280;48653;51.742;-1.256;2024-01-25T08:30:18;101832.63;;;9.21;60.42
62055;BME280;48653;51.742;-1.256;2024-01-25T08:32:42;101831.30;;;9.25;59.66
62055;BME280;48653;51.742;-1.256;2024-01-25T08:35:08;101837.38;;;9.66;59.47
62055;BME280;48653;51.742;-1.256;2024-01-25T08:37:33;101837.90;;;9.34;59.85
62055;BME280;48653;51.742;-1.256;2024-01-25T08:39:58;101841.22;;;9.47;60.55
62055;BME280;48653;51.742;-1.256;2024-01-25T08:42:24;101844.59;;;9.84;58.66
62055;BME280;48653;51.742;-1.256;2024-01-25T08:44:50;101840.87;;;9.71;59.08
62055;BME280;48653;51.742;-1.256;2024-01-25T08:47:13;101841.11;;;9.61;59.71
62055;BME280;48653;51.742;-1.256;2024-01-25T08:49:39;101838.10;;;9.92;58.72
62055;BME280;48653;51.742;-1.256;2024-01-25T08:52:06;101833.00;;;9.64;59.33
62055;BME280;48653;51.742;-1.256;2024-01-25T08:54:30;101832.06;;;9.64;59.71
62055;BME280;48653;51.742;-1.256;2024-01-25T08:56:55;101827.96;;;9.89;58.51
62055;BME280;48653;51.742;-1.256;2024-01-25T08:59:22;101831.71;;;9.93;58.80
62055;BME280;48653;51.742;-1.256;2024-01-25T09:01:47;101831.30;;;10.40;57.96
62055;BME280;48653;51.742;-1.256;2024-01-25T09:04:12;101825.35;;;10.08;58.22
62055;BME280;48653;51.742;-1.256;2024-01-25T09:06:37;101828.46;;;10.39;57.88
62055;BME280;48653;51.742;-1.256;2024-01-25T09:09:02;101821.59;;;10.05;58.52
62055;BME280;48653;51.742;-1.256;2024-01-25T09:11:28;101820.56;;;10.66;57.90
62055;BME280;48653;51.742;-1.256;2024-01-25T09:13:52;101817.56;;;10.30;58.57
62055;BME280;48653;51.742;-1.256;2024-01-25T09:16:18;101807.47;;;10.05;58.41
62055;BME280;48653;51.742;-1.256;2024-01-25T09:18:42;101806.06;;;10.39;57.56
62055;BME280;48653;51.742;-1.256;2024-01-25T09:21:07;101792.16;;;10.97;56.99
62055;BME280;48653;51.742;-1.256;2024-01-25T09:23:33;101796.90;;;10.20;59.60
62055;BME280;48653;51.742;-1.256;2024-01-25T09:25:58;101805.98;;;10.42;59.58
62055;BME280;48653;51.742;-1.256;2024-01-25T09:28:24;101810.89;;;10.38;59.52
62055;BME280;48653;51.742;-1.256;2024-01-25T09:30:50;101807.43;;;10.74;58.41
62055;BME280;48653;51.742;-1.256;2024-01-25T09:33:15;101802.01;;;10.62;58.51
62055;BME280;48653;51.742;-1.256;2024-01-25T09:35:40;101797.26;;;10.74;57.90
62055;BME280;48653;51.742;-1.256;2024-01-25T09:38:05;101798.96;;;10.55;57.96
62055;BME280;48653;51.742;-1.256;2024-01-25T09:40:30;101793.34;;;11.31;57.59
62055;BME280;48653;51.742;-1.256;2024-01-25T09:42:55;101790.04;;;11.02;58.14
62055;BME280;48653;51.742;-1.256;2024-01-25T09:45:21;101797.20;;;11.12;57.98
62055;BME280;48653;51.742;-1.256;2024-01-25T09:47:46;101800.25;;;10.63;59.15
62055;BME280;48653;51.742;-1.256;2024-01-25T09:50:11;101801.03;;;11.24;58.67
62055;BME280;48653;51.742;-1.256;2024-01-25T09:52:37;101794.70;;;10.93;58.66
62055;BME280;48653;51.742;-1.256;2024-01-25T09:55:02;101788.66;;;10.60;59.08
62055;BME280;48653;51.742;-1.256;2024-01-25T09:57:28;101791.15;;;9.50;62.58
62055;BME280;48653;51.742;-1.256;2024-01-25T09:59:52;101783.31;;;10.19;60.90
62055;BME280;48653;51.742;-1.256;2024-01-25T10:02:17;101782.79;;;10.40;61.28
62055;BME280;48653;51.742;-1.256;2024-01-25T10:04:42;101789.10;;;10.02;62.49
62055;BME280;48653;51.742;-1.256;2024-01-25T10:07:07;101784.82;;;10.24;61.33
62055;BME280;48653;51.742;-1.256;2024-01-25T10:09:38;101780.29;;;10.03;62.58
62055;BME280;48653;51.742;-1.256;2024-01-25T10:11:58;101778.83;;;9.89;63.58
62055;BME280;48653;51.742;-1.256;2024-01-25T10:14:22;101780.17;;;10.15;63.05
62055;BME280;48653;51.742;-1.256;2024-01-25T10:16:47;101784.83;;;9.72;64.45
62055;BME280;48653;51.742;-1.256;2024-01-25T10:19:12;101785.06;;;10.58;62.50
62055;BME280;48653;51.742;-1.256;2024-01-25T10:21:40;101786.76;;;10.23;62.19
62055;BME280;48653;51.742;-1.256;2024-01-25T10:24:05;101777.05;;;10.54;61.74
62055;BME280;48653;51.742;-1.256;2024-01-25T10:26:28;101775.19;;;10.00;63.10
62055;BME280;48653;51.742;-1.256;2024-01-25T10:28:53;101777.18;;;9.67;63.99
62055;BME280;48653;51.742;-1.256;2024-01-25T10:31:18;101785.83;;;9.50;64.14
62055;BME280;48653;51.742;-1.256;2024-01-25T10:33:43;101782.01;;;10.27;62.37
62055;BME280;48653;51.742;-1.256;2024-01-25T10:36:09;101777.11;;;10.88;61.32
62055;BME280;48653;51.742;-1.256;2024-01-25T10:38:35;101775.24;;;10.36;61.73
62055;BME280;48653;51.742;-1.256;2024-01-25T10:41:00;101779.24;;;10.64;61.21
62055;BME280;48653;51.742;-1.256;2024-01-25T10:43:24;101776.18;;;10.69;61.03
62055;BME280;48653;51.742;-1.256;2024-01-25T10:45:50;101775.52;;;10.18;62.17
62055;BME280;48653;51.742;-1.256;2024-01-25T10:48:15;101778.11;;;10.09;62.25
62055;BME280;48653;51.742;-1.256;2024-01-25T10:50:40;101788.29;;;10.29;62.56
62055;BME280;48653;51.742;-1.256;2024-01-25T10:53:05;101775.82;;;11.00;61.02
62055;BME280;48653;51.742;-1.256;2024-01-25T10:55:30;101774.40;;;10.59;61.82
62055;BME280;48653;51.742;-1.256;2024-01-25T10:57:56;101779.23;;;11.12;60.09
62055;BME280;48653;51.742;-1.256;2024-01-25T11:00:21;101770.55;;;11.24;59.95
62055;BME280;48653;51.742;-1.256;2024-01-25T11:02:46;101771.36;;;11.20;59.24
62055;BME280;48653;51.742;-1.256;2024-01-25T11:05:14;101771.99;;;11.13;58.75
62055;BME280;48653;51.742;-1.256;2024-01-25T11:07:43;101774.32;;;11.31;58.42
62055;BME280;48653;51.742;-1.256;2024-01-25T11:10:02;101775.34;;;10.95;59.36
62055;BME280;48653;51.742;-1.256;2024-01-25T11:12:31;101780.52;;;11.31;58.95
62055;BME280;48653;51.742;-1.256;2024-01-25T11:14:54;101768.02;;;10.93;59.40
62055;BME280;48653;51.742;-1.256;2024-01-25T11:17:19;101770.55;;;10.86;59.66
62055;BME280;48653;51.742;-1.256;2024-01-25T11:19:44;101769.12;;;11.17;58.71
62055;BME280;48653;51.742;-1.256;2024-01-25T11:22:07;101771.57;;;11.24;58.47
62055;BME280;48653;51.742;-1.256;2024-01-25T11:24:37;101772.48;;;11.06;59.29
62055;BME280;48653;51.742;-1.256;2024-01-25T11:26:57;101768.73;;;11.27;59.66
62055;BME280;48653;51.742;-1.256;2024-01-25T11:29:22;101761.19;;;10.54;61.27
62055;BME280;48653;51.742;-1.256;2024-01-25T11:31:49;101744.90;;;11.13;59.56
62055;BME280;48653;51.742;-1.256;2024-01-25T11:34:13;101742.15;;;10.78;60.45
62055;BME280;48653;51.742;-1.256;2024-01-25T11:36:37;101757.86;;;11.41;58.98
62055;BME280;48653;51.742;-1.256;2024-01-25T11:39:02;101745.15;;;10.72;60.19
62055;BME280;48653;51.742;-1.256;2024-01-25T11:41:28;101737.99;;;11.01;59.55
62055;BME280;48653;51.742;-1.256;2024-01-25T11:43:53;101740.08;;;11.07;59.57
62055;BME280;48653;51.742;-1.256;2024-01-25T11:46:18;101739.93;;;11.61;57.54
62055;BME280;48653;51.742;-1.256;2024-01-25T11:48:43;101736.96;;;11.85;56.64
62055;BME280;48653;51.742;-1.256;2024-01-25T11:51:09;101733.56;;;12.14;55.60
62055;BME280;48653;51.742;-1.256;2024-01-25T11:53:33;101728.65;;;11.96;55.79
62055;BME280;48653;51.742;-1.256;2024-01-25T11:56:01;101726.25;;;11.40;57.15
62055;BME280;48653;51.742;-1.256;2024-01-25T11:58:25;101721.56;;;11.33;58.25
62055;BME280;48653;51.742;-1.256;2024-01-25T12:00:50;101718.69;;;12.03;57.43
62055;BME280;48653;51.742;-1.256;2024-01-25T12:03:16;101719.64;;;12.77;54.98
62055;BME280;48653;51.742;-1.256;2024-01-25T12:05:40;101715.20;;;12.02;55.99
62055;BME280;48653;51.742;-1.256;2024-01-25T12:08:08;101715.08;;;11.98;56.60
62055;BME280;48653;51.742;-1.256;2024-01-25T12:10:30;101708.67;;;11.79;55.98
62055;BME280;48653;51.742;-1.256;2024-01-25T12:12:56;101694.77;;;13.04;54.35
62055;BME280;48653;51.742;-1.256;2024-01-25T12:15:21;101691.59;;;12.84;53.07
62055;BME280;48653;51.742;-1.256;2024-01-25T12:17:45;101690.12;;;12.49;53.84
62055;BME280;48653;51.742;-1.256;2024-01-25T12:20:11;101690.95;;;13.24;52.34
62055;BME280;48653;51.742;-1.256;2024-01-25T12:22:36;101685.55;;;12.81;53.24
62055;BME280;48653;51.742;-1.256;2024-01-25T12:25:01;101690.65;;;12.16;54.85
62055;BME280;48653;51.742;-1.256;2024-01-25T12:27:27;101682.12;;;12.15;55.02
62055;BME280;48653;51.742;-1.256;2024-01-25T12:29:53;101676.18;;;13.28;54.39
62055;BME280;48653;51.742;-1.256;2024-01-25T12:32:17;101670.10;;;12.86;53.38
62055;BME280;48653;51.742;-1.256;2024-01-25T12:34:42;101676.92;;;13.28;53.39
62055;BME280;48653;51.742;-1.256;2024-01-25T12:37:07;101672.88;;;12.84;54.14
62055;BME280;48653;51.742;-1.256;2024-01-25T12:39:33;101668.11;;;13.24;52.62
62055;BME280;48653;51.742;-1.256;2024-01-25T12:41:58;101667.16;;;13.66;52.56
62055;BME280;48653;51.742;-1.256;2024-01-25T12:44:23;101666.23;;;12.51;54.11
62055;BME280;48653;51.742;-1.256;2024-01-25T12:46:48;101661.95;;;12.83;53.39
62055;BME280;48653;51.742;-1.256;2024-01-25T12:49:13;101656.14;;;12.64;54.13